Time;durP1;ratioP1;P1;durP2;ratioP2;P2;SDS_P1;SDS_P2;PMS_P1;PMS_P2;Temp;Humidity;BMP_temperature;BMP_pressure;BME280_temperature;BME280_humidity;BME280_pressure;Samples;Min_cycle;Max_cycle;Signal;HPM_P1;HPM_P2
2021/01/01 00:00:20;;;;;;;22.75;14.15;;;;;;;8.22;74.07;99808.92;1763735;80;21579;-69
2021/01/01 00:02:49;;;;;;;20.57;13.65;;;;;;;8.21;74.01;99812.52;1754295;80;21161;-66
2021/01/01 00:05:17;;;;;;;19.57;11.85;;;;;;;8.19;74.01;99806.09;1747596;79;21201;-66
2021/01/01 00:07:44;;;;;;;25.65;13.28;;;;;;;8.15;73.98;99808.13;1746462;80;21437;-66
2021/01/01 00:10:13;;;;;;;19.23;13.13;;;;;;;8.10;74.03;99803.72;1758074;79;21201;-70
2021/01/01 00:12:41;;;;;;;25.27;13.05;;;;;;;8.11;74.00;99798.00;1759738;79;21180;-66
2021/01/01 00:15:13;;;;;;;16.57;10.72;;;;;;;8.19;73.93;99796.91;1757915;79;21161;-67
2021/01/01 00:17:42;;;;;;;22.17;11.57;;;;;;;8.26;73.83;99795.46;1756106;79;21195;-72
2021/01/01 00:20:11;;;;;;;17.57;10.75;;;;;;;8.33;73.77;99795.31;1761481;79;21188;-67
2021/01/01 00:22:43;;;;;;;22.60;12.80;;;;;;;8.41;73.67;99793.41;1748103;79;21711;-67
2021/01/01 00:25:12;;;;;;;17.85;11.65;;;;;;;8.40;73.60;99796.15;1766319;79;21173;-67
2021/01/01 00:27:40;;;;;;;18.62;11.45;;;;;;;8.33;73.66;99788.77;1761201;79;21436;-67
2021/01/01 00:30:11;;;;;;;24.27;14.65;;;;;;;8.31;73.82;99790.69;1759628;79;21204;-67
2021/01/01 00:32:42;;;;;;;19.60;12.95;;;;;;;8.29;73.85;99792.60;1763203;79;21387;-67
2021/01/01 00:35:11;;;;;;;19.15;10.85;;;;;;;8.27;73.88;99787.11;1760118;79;21208;-65
2021/01/01 00:37:40;;;;;;;21.40;11.60;;;;;;;8.30;73.82;99786.38;1754069;80;21204;-67
2021/01/01 00:40:10;;;;;;;14.63;9.80;;;;;;;8.40;73.69;99783.04;1755856;79;21565;-66
2021/01/01 00:42:37;;;;;;;18.57;11.40;;;;;;;8.45;73.51;99783.05;1747421;79;21189;-67
2021/01/01 00:45:07;;;;;;;19.82;11.95;;;;;;;8.47;73.61;99779.84;1763453;79;21364;-67
2021/01/01 00:47:36;;;;;;;20.90;12.65;;;;;;;8.47;73.64;99780.30;1763744;80;21668;-67
2021/01/01 00:50:05;;;;;;;19.60;11.97;;;;;;;8.46;73.72;99778.66;1757131;79;21183;-66
2021/01/01 00:52:37;;;;;;;21.23;12.35;;;;;;;8.41;73.79;99774.23;1767474;79;21172;-66
2021/01/01 00:55:08;;;;;;;18.87;11.35;;;;;;;8.35;74.04;99771.61;1753062;79;21660;-66
2021/01/01 00:57:36;;;;;;;19.25;10.68;;;;;;;8.34;74.07;99761.61;1771326;79;21217;-65
2021/01/01 01:00:08;;;;;;;21.52;11.30;;;;;;;8.41;74.01;99765.05;1768234;79;21652;-65
2021/01/01 01:02:36;;;;;;;18.70;12.73;;;;;;;8.42;73.98;99760.14;1761816;79;21152;-65
2021/01/01 01:05:05;;;;;;;18.70;11.93;;;;;;;8.43;74.19;99760.06;1761901;79;21181;-66
2021/01/01 01:07:34;;;;;;;28.45;13.43;;;;;;;8.45;74.30;99765.17;1753000;79;21173;-66
2021/01/01 01:10:04;;;;;;;21.82;11.75;;;;;;;8.41;74.36;99761.95;1761106;79;21270;-66
2021/01/01 01:12:32;;;;;;;23.22;13.03;;;;;;;8.40;74.41;99762.89;1765248;79;21160;-65
2021/01/01 01:15:00;;;;;;;24.00;12.35;;;;;;;8.38;74.40;99759.08;1762021;79;21611;-66
2021/01/01 01:17:28;;;;;;;18.52;10.85;;;;;;;8.38;74.31;99751.22;1761477;79;21108;-66
2021/01/01 01:19:56;;;;;;;20.80;12.78;;;;;;;8.48;74.06;99746.09;1760774;79;21121;-66
2021/01/01 01:22:23;;;;;;;25.77;13.43;;;;;;;8.55;73.85;99738.56;1768630;79;21194;-66
2021/01/01 01:24:52;;;;;;;22.93;13.45;;;;;;;8.61;73.72;99738.52;1755747;79;21149;-66
2021/01/01 01:27:19;;;;;;;27.93;14.87;;;;;;;8.64;73.59;99731.72;1726284;81;21182;-65
2021/01/01 01:29:48;;;;;;;23.15;13.32;;;;;;;8.65;73.51;99730.28;1701269;82;21179;-66
2021/01/01 01:32:15;;;;;;;22.45;13.78;;;;;;;8.66;73.30;99730.66;1755472;79;21232;-66
2021/01/01 01:34:43;;;;;;;27.60;15.25;;;;;;;8.66;73.15;99729.83;1764181;79;21306;-66
2021/01/01 01:37:12;;;;;;;24.65;14.18;;;;;;;8.64;73.04;99723.86;1756629;79;21195;-66
2021/01/01 01:39:39;;;;;;;26.52;13.93;;;;;;;8.69;72.77;99723.84;1754960;79;21160;-66
2021/01/01 01:42:07;;;;;;;21.35;12.25;;;;;;;8.76;72.40;99722.00;1750327;79;21201;-66
2021/01/01 01:44:37;;;;;;;28.52;14.65;;;;;;;8.79;72.25;99717.82;1751889;80;21572;-66
2021/01/01 01:47:04;;;;;;;21.65;13.28;;;;;;;8.81;72.13;99720.69;1762752;79;21379;-66
2021/01/01 01:49:33;;;;;;;25.70;13.70;;;;;;;8.77;72.26;99717.95;1762844;80;21147;-64
2021/01/01 01:52:01;;;;;;;28.35;15.40;;;;;;;8.73;72.43;99716.55;1744540;80;21141;-65
2021/01/01 01:54:29;;;;;;;26.60;14.60;;;;;;;8.71;72.55;99714.54;1755603;80;21165;-65
2021/01/01 01:56:57;;;;;;;24.95;14.30;;;;;;;8.70;72.36;99711.55;1756126;79;21130;-65
2021/01/01 01:59:25;;;;;;;22.90;14.05;;;;;;;8.64;72.18;99709.43;1755868;80;21253;-65
2021/01/01 02:01:53;;;;;;;25.02;13.70;;;;;;;8.62;72.06;99706.11;1749429;79;22009;-68
2021/01/01 02:04:21;;;;;;;18.95;11.83;;;;;;;8.67;71.83;99699.52;1751281;79;21184;-67
2021/01/01 02:06:50;;;;;;;21.95;13.58;;;;;;;8.69;71.59;99696.77;1762193;79;21251;-65
2021/01/01 02:09:18;;;;;;;24.77;15.03;;;;;;;8.68;71.35;99702.98;1746834;79;21521;-65
2021/01/01 02:11:47;;;;;;;26.02;15.28;;;;;;;8.61;71.44;99702.66;1753595;80;21879;-66
2021/01/01 02:15:54;;;;;;;27.07;15.00;;;;;;;8.56;71.51;99696.97;1798727;78;22837;-67
2021/01/01 02:18:39;;;;;;;25.92;15.23;;;;;;;8.46;71.41;99698.20;1756930;80;21262;-67
2021/01/01 02:21:07;;;;;;;21.57;13.88;;;;;;;8.38;71.43;99698.78;1774654;80;21286;-65
2021/01/01 02:23:35;;;;;;;21.45;13.35;;;;;;;8.29;71.57;99697.42;1761298;80;21140;-65
2021/01/01 02:26:03;;;;;;;22.62;12.15;;;;;;;8.26;71.75;99698.97;1769744;80;21630;-65
2021/01/01 02:28:31;;;;;;;21.27;13.95;;;;;;;8.32;71.57;99697.14;1771008;79;21184;-66
2021/01/01 02:31:01;;;;;;;22.13;13.15;;;;;;;8.35;71.51;99691.66;1771497;78;21128;-65
2021/01/01 02:33:29;;;;;;;25.25;13.68;;;;;;;8.35;71.50;99685.95;1757782;80;21377;-66
2021/01/01 02:35:58;;;;;;;23.38;14.07;;;;;;;8.31;71.61;99687.63;1770627;80;21196;-66
2021/01/01 02:38:25;;;;;;;23.62;14.45;;;;;;;8.26;71.85;99678.83;1773976;78;21148;-66
2021/01/01 02:40:53;;;;;;;27.05;14.73;;;;;;;8.26;71.79;99677.52;1766719;80;21124;-65
2021/01/01 02:43:22;;;;;;;25.05;15.05;;;;;;;8.23;71.79;99668.59;1768460;78;21505;-65
2021/01/01 02:45:51;;;;;;;23.87;12.63;;;;;;;8.17;71.84;99666.48;1735323;81;21391;-65
2021/01/01 02:48:20;;;;;;;20.55;12.40;;;;;;;8.17;71.96;99663.38;1702260;83;21145;-65
2021/01/01 02:50:50;;;;;;;21.70;12.45;;;;;;;8.27;71.94;99661.30;1702573;83;21264;-65
2021/01/01 02:53:18;;;;;;;21.15;13.22;;;;;;;8.35;71.95;99655.80;1712259;83;21194;-65
2021/01/01 02:55:48;;;;;;;24.43;14.03;;;;;;;8.40;72.03;99655.89;1716355;81;21136;-65
2021/01/01 02:58:16;;;;;;;23.02;14.20;;;;;;;8.41;72.19;99649.70;1689433;83;21324;-65
2021/01/01 03:00:47;;;;;;;25.62;14.25;;;;;;;8.41;72.32;99641.84;1720619;82;21183;-65
2021/01/01 03:03:16;;;;;;;22.50;12.55;;;;;;;8.41;72.31;99639.22;1717773;81;21141;-65
2021/01/01 03:05:45;;;;;;;22.58;12.90;;;;;;;8.41;72.46;99640.53;1717290;82;21164;-65
2021/01/01 03:08:14;;;;;;;18.07;12.00;;;;;;;8.39;72.58;99636.72;1715692;82;21560;-65
2021/01/01 03:10:41;;;;;;;17.82;12.30;;;;;;;8.42;72.64;99643.48;1712921;82;21639;-65
2021/01/01 03:13:09;;;;;;;21.50;11.90;;;;;;;8.50;72.61;99641.09;1714206;82;21178;-65
2021/01/01 03:15:37;;;;;;;21.52;11.22;;;;;;;8.60;72.46;99631.98;1707518;82;21201;-65
2021/01/01 03:18:06;;;;;;;20.48;12.05;;;;;;;8.65;72.34;99622.76;1704063;83;21164;-65
2021/01/01 03:20:36;;;;;;;21.95;13.35;;;;;;;8.66;72.23;99630.17;1760300;80;21201;-66
2021/01/01 03:23:08;;;;;;;26.95;13.68;;;;;;;8.63;72.30;99623.38;1754171;80;22371;-66
2021/01/01 03:25:38;;;;;;;17.60;11.50;;;;;;;8.60;72.50;99617.07;1750848;80;21188;-66
2021/01/01 03:28:05;;;;;;;21.17;11.28;;;;;;;8.58;72.67;99618.17;1755781;79;21208;-65
2021/01/01 03:30:33;;;;;;;15.28;9.83;;;;;;;8.54;72.81;99611.05;1759336;80;21164;-66
2021/01/01 03:33:01;;;;;;;16.10;10.48;;;;;;;8.59;72.77;99607.56;1751731;80;21256;-65
2021/01/01 03:35:29;;;;;;;17.07;10.85;;;;;;;8.67;72.62;99602.96;1761616;80;21369;-65
2021/01/01 03:37:56;;;;;;;17.10;11.20;;;;;;;8.76;72.54;99598.72;1763565;79;21588;-67
2021/01/01 03:40:24;;;;;;;22.32;11.03;;;;;;;8.80;72.40;99598.83;1757501;80;21192;-66
2021/01/01 03:42:52;;;;;;;21.50;11.60;;;;;;;8.78;72.36;99595.52;1760085;80;21181;-65
2021/01/01 03:45:20;;;;;;;15.35;10.98;;;;;;;8.76;72.45;99589.54;1748904;80;21172;-64
2021/01/01 03:47:48;;;;;;;20.45;12.30;;;;;;;8.70;72.45;99593.04;1754943;80;22331;-65
2021/01/01 03:50:16;;;;;;;19.32;11.95;;;;;;;8.63;72.55;99597.64;1751651;80;21624;-65
2021/01/01 03:52:43;;;;;;;17.07;10.93;;;;;;;8.55;72.78;99602.20;1754984;80;21643;-65
2021/01/01 03:55:11;;;;;;;18.25;11.08;;;;;;;8.55;72.83;99602.20;1716019;82;21200;-66
2021/01/01 03:57:40;;;;;;;16.20;9.45;;;;;;;8.59;72.73;99597.53;1758995;79;21615;-65
2021/01/01 04:00:09;;;;;;;17.37;10.90;;;;;;;8.61;72.67;99591.67;1762213;80;21392;-64
2021/01/01 04:02:40;;;;;;;14.80;9.95;;;;;;;8.59;72.70;99582.65;1748734;80;21185;-66
2021/01/01 04:05:08;;;;;;;16.87;10.88;;;;;;;8.56;72.82;99575.03;1755629;80;21620;-65
2021/01/01 04:07:36;;;;;;;18.67;10.95;;;;;;;8.51;72.84;99572.80;1756712;79;21718;-65
2021/01/01 04:10:05;;;;;;;19.70;11.70;;;;;;;8.46;72.85;99564.48;1755734;80;21194;-65
2021/01/01 04:12:33;;;;;;;17.02;11.00;;;;;;;8.41;72.86;99564.50;1750805;80;21204;-65
2021/01/01 04:15:00;;;;;;;17.25;9.40;;;;;;;8.40;72.85;99559.72;1756743;80;21232;-70
2021/01/01 04:17:29;;;;;;;18.20;10.20;;;;;;;8.47;72.70;99557.44;1753654;79;21201;-64
2021/01/01 04:19:57;;;;;;;19.55;9.75;;;;;;;8.51;72.53;99564.92;1750827;80;21781;-64
2021/01/01 04:22:24;;;;;;;14.90;9.30;;;;;;;8.51;72.52;99566.73;1749181;80;21140;-62
2021/01/01 04:24:53;;;;;;;15.38;9.83;;;;;;;8.46;72.62;99567.59;1748571;80;22463;-64
2021/01/01 04:27:22;;;;;;;15.70;9.60;;;;;;;8.40;72.85;99562.83;1754821;79;21647;-64
2021/01/01 04:29:49;;;;;;;13.70;8.45;;;;;;;8.33;73.07;99550.72;1758697;79;21243;-62
2021/01/01 04:32:20;;;;;;;14.47;7.53;;;;;;;8.28;73.11;99565.52;1712926;82;21192;-63
2021/01/01 04:34:49;;;;;;;17.00;9.13;;;;;;;8.26;73.26;99570.05;1748765;80;21172;-60
2021/01/01 04:37:16;;;;;;;17.15;7.70;;;;;;;8.33;73.23;99571.69;1756309;80;22144;-63
2021/01/01 04:39:46;;;;;;;14.47;9.15;;;;;;;8.34;73.15;99559.77;1752792;80;21348;-64
2021/01/01 04:42:13;;;;;;;13.22;8.40;;;;;;;8.34;73.14;99541.41;1752385;80;21216;-62
2021/01/01 04:44:41;;;;;;;15.40;8.25;;;;;;;8.29;73.05;99548.02;1749421;80;21177;-63
2021/01/01 04:47:10;;;;;;;15.30;9.28;;;;;;;8.21;73.09;99561.75;1755010;80;21448;-63
2021/01/01 04:49:39;;;;;;;15.95;9.28;;;;;;;8.17;73.08;99568.22;1746999;80;22725;-60
2021/01/01 04:52:07;;;;;;;16.30;9.38;;;;;;;8.07;73.22;99555.04;1753378;80;21600;-63
2021/01/01 04:54:35;;;;;;;12.53;7.45;;;;;;;8.07;73.34;99522.75;1728320;80;21157;-62
2021/01/01 04:57:04;;;;;;;13.58;8.75;;;;;;;8.14;73.16;99546.19;1736196;79;22377;-62
2021/01/01 04:59:31;;;;;;;14.40;9.20;;;;;;;8.18;72.98;99530.55;1761270;79;21179;-67
2021/01/01 05:01:59;;;;;;;16.77;10.08;;;;;;;8.17;72.96;99548.08;1697236;84;21207;-61
2021/01/01 05:04:27;;;;;;;12.45;7.60;;;;;;;8.12;73.06;99546.77;1762293;79;21199;-65
2021/01/01 05:06:55;;;;;;;15.58;9.18;;;;;;;8.05;73.22;99544.32;1700125;82;21184;-72
2021/01/01 05:09:23;;;;;;;14.28;8.68;;;;;;;7.97;73.40;99543.17;1754926;80;21169;-64
2021/01/01 05:12:06;;;;;;;16.62;8.98;;;;;;;7.92;73.53;99542.72;1759621;79;21184;-60
2021/01/01 05:14:34;;;;;;;17.55;9.80;;;;;;;7.90;73.49;99549.03;1761693;79;21371;-60
2021/01/01 05:17:01;;;;;;;16.35;8.25;;;;;;;7.92;73.43;99549.27;1757091;80;21671;-59
2021/01/01 05:19:42;;;;;;;11.85;7.72;;;;;;;7.94;73.39;99552.59;1757324;80;21522;-59
2021/01/01 05:22:11;;;;;;;15.28;9.03;;;;;;;7.93;73.44;99554.02;1757816;80;21821;-59
2021/01/01 05:24:46;;;;;;;13.38;8.20;;;;;;;7.84;73.58;99550.38;1750838;81;22318;-60
2021/01/01 05:27:16;;;;;;;14.15;8.85;;;;;;;7.79;73.68;99549.92;1749582;81;21202;-59
2021/01/01 05:29:52;;;;;;;12.68;7.40;;;;;;;7.71;73.83;99552.34;1758132;80;21204;-60
2021/01/01 05:32:23;;;;;;;12.63;8.20;;;;;;;7.68;73.92;99544.72;1752832;81;21173;-57
2021/01/01 05:34:52;;;;;;;11.53;7.75;;;;;;;7.74;73.86;99545.55;1746917;81;21184;-58
2021/01/01 05:37:33;;;;;;;10.53;7.55;;;;;;;7.75;73.80;99540.64;1752514;80;21117;-58
2021/01/01 05:40:12;;;;;;;14.38;8.28;;;;;;;7.75;73.78;99544.56;1745428;80;22655;-56
2021/01/01 05:42:39;;;;;;;14.35;8.73;;;;;;;7.69;73.97;99547.22;1744913;81;21140;-58
2021/01/01 05:45:17;;;;;;;14.43;7.58;;;;;;;7.63;74.14;99543.33;1753445;81;21207;-58
2021/01/01 05:48:07;;;;;;;15.13;8.78;;;;;;;7.58;74.26;99544.17;1749302;81;21853;-57
2021/01/01 05:50:35;;;;;;;12.07;7.55;;;;;;;7.52;74.43;99547.28;1751838;80;21200;-58
2021/01/01 05:53:15;;;;;;;14.25;8.58;;;;;;;7.50;74.54;99542.66;1747296;81;21856;-60
2021/01/01 05:55:44;;;;;;;12.75;7.97;;;;;;;7.58;74.57;99548.56;1750477;81;21180;-58
2021/01/01 05:58:25;;;;;;;15.85;9.25;;;;;;;7.64;74.30;99549.38;1747617;81;21212;-57
2021/01/01 06:00:56;;;;;;;13.05;7.83;;;;;;;7.69;74.22;99547.22;1750404;80;21208;-59
2021/01/01 06:03:33;;;;;;;13.15;7.35;;;;;;;7.68;74.21;99540.80;1746518;81;21390;-58
2021/01/01 06:06:06;;;;;;;12.90;7.87;;;;;;;7.65;74.24;99539.73;1743177;81;22697;-58
2021/01/01 06:08:34;;;;;;;12.80;8.45;;;;;;;7.60;74.19;99538.81;1673214;84;21228;-57
2021/01/01 06:11:05;;;;;;;15.15;8.53;;;;;;;7.58;74.21;99537.63;1749358;80;21282;-57
2021/01/01 06:13:34;;;;;;;12.73;7.83;;;;;;;7.63;74.07;99538.55;1753025;81;21200;-57
2021/01/01 06:16:04;;;;;;;13.35;8.13;;;;;;;7.67;74.00;99530.81;1754680;80;21661;-58
2021/01/01 06:18:33;;;;;;;12.47;8.00;;;;;;;7.69;73.96;99536.75;1762817;80;21236;-58
2021/01/01 06:21:07;;;;;;;14.75;8.28;;;;;;;7.65;73.95;99529.25;1759760;80;21634;-59
2021/01/01 06:23:38;;;;;;;14.65;8.35;;;;;;;7.60;74.07;99521.31;1766658;80;21176;-59
2021/01/01 06:26:11;;;;;;;14.68;8.30;;;;;;;7.57;74.23;99530.72;1773500;80;21160;-59
2021/01/01 06:28:44;;;;;;;16.90;7.92;;;;;;;7.52;74.36;99530.27;1698259;83;21038;-58
2021/01/01 06:31:11;;;;;;;15.00;8.28;;;;;;;7.53;74.42;99526.70;1760499;79;21235;-58
2021/01/01 06:33:43;;;;;;;14.00;7.40;;;;;;;7.59;74.30;99519.64;1765380;80;21184;-59
2021/01/01 06:36:38;;;;;;;13.78;7.90;;;;;;;7.65;74.25;99517.47;1764321;79;21184;-59
2021/01/01 06:39:06;;;;;;;14.87;8.33;;;;;;;7.64;74.31;99519.27;1734383;80;21208;-60
2021/01/01 06:41:45;;;;;;;20.68;10.00;;;;;;;7.61;74.56;99516.90;1769098;79;21132;-60
2021/01/01 06:44:42;;;;;;;17.60;9.35;;;;;;;7.61;74.73;99520.83;1769124;80;21416;-59
2021/01/01 06:47:11;;;;;;;17.17;8.85;;;;;;;7.58;74.79;99523.69;1760960;80;21571;-58
2021/01/01 06:49:39;;;;;;;14.73;8.40;;;;;;;7.63;74.80;99519.76;1756108;80;21548;-59
2021/01/01 06:52:16;;;;;;;15.78;8.80;;;;;;;7.73;74.56;99528.16;1760340;79;21163;-59
2021/01/01 06:54:59;;;;;;;16.25;9.50;;;;;;;7.76;74.50;99529.22;1765048;79;21113;-58
2021/01/01 06:57:29;;;;;;;17.05;9.45;;;;;;;7.76;74.54;99523.98;1775408;79;21208;-57
2021/01/01 06:59:58;;;;;;;22.37;10.03;;;;;;;7.76;74.69;99526.60;1767966;80;21453;-61
2021/01/01 07:02:29;;;;;;;25.23;10.30;;;;;;;7.75;74.81;99527.09;1771180;79;21191;-60
2021/01/01 07:04:58;;;;;;;16.75;8.80;;;;;;;7.81;74.87;99524.44;1767670;79;21183;-61
2021/01/01 07:07:41;;;;;;;15.05;8.08;;;;;;;7.94;74.79;99529.50;1767255;79;21584;-64
2021/01/01 07:10:17;;;;;;;19.62;9.45;;;;;;;8.00;74.84;99528.97;1771631;79;21497;-61
2021/01/01 07:12:44;;;;;;;27.30;9.83;;;;;;;8.06;74.96;99538.95;1755559;80;26936;-60
2021/01/01 07:15:32;;;;;;;16.75;9.40;;;;;;;8.07;75.16;99536.70;1757067;80;22202;-64
2021/01/01 07:18:00;;;;;;;22.82;11.03;;;;;;;8.07;75.32;99541.94;1767454;79;22640;-59
2021/01/01 07:20:28;;;;;;;18.75;9.60;;;;;;;8.07;75.51;99535.39;1709954;82;21236;-61
2021/01/01 07:22:58;;;;;;;16.15;9.60;;;;;;;8.16;75.38;99545.58;1765154;79;22124;-61
2021/01/01 07:25:37;;;;;;;18.20;9.33;;;;;;;8.24;75.33;99539.22;1777538;80;21583;-59
2021/01/01 07:28:06;;;;;;;16.25;9.40;;;;;;;8.32;75.26;99539.87;1761648;79;21128;-60
2021/01/01 07:30:35;;;;;;;17.50;9.45;;;;;;;8.38;75.26;99541.98;1774845;79;21243;-64
2021/01/01 07:33:03;;;;;;;24.02;10.78;;;;;;;8.34;75.34;99534.86;1754142;80;21497;-60
2021/01/01 07:35:30;;;;;;;18.50;8.68;;;;;;;8.32;75.40;99547.27;1772219;80;21240;-66
2021/01/01 07:37:59;;;;;;;17.82;9.10;;;;;;;8.28;75.55;99543.23;1757189;79;21174;-60
2021/01/01 07:40:38;;;;;;;14.80;8.08;;;;;;;8.33;75.50;99543.67;1696338;82;21181;-63
2021/01/01 07:43:09;;;;;;;17.50;9.68;;;;;;;8.41;75.37;99548.77;1767705;79;21552;-62
2021/01/01 07:45:39;;;;;;;16.23;9.35;;;;;;;8.41;75.52;99546.97;1765294;79;21235;-63
2021/01/01 07:48:08;;;;;;;19.98;10.40;;;;;;;8.42;75.61;99553.86;1782034;79;22120;-64
2021/01/01 07:50:37;;;;;;;16.80;9.45;;;;;;;8.43;75.71;99552.13;1763371;79;21191;-63
2021/01/01 07:53:08;;;;;;;20.80;8.95;;;;;;;8.44;75.67;99555.92;1757619;80;21180;-61
2021/01/01 07:55:37;;;;;;;14.80;8.03;;;;;;;8.51;75.55;99552.30;1756665;80;21212;-66
2021/01/01 07:58:09;;;;;;;16.82;9.40;;;;;;;8.56;75.50;99550.13;1770796;79;21623;-64
2021/01/01 08:00:43;;;;;;;11.93;7.92;;;;;;;8.57;75.55;99554.39;1774830;80;22226;-63
2021/01/01 08:03:12;;;;;;;19.85;8.98;;;;;;;8.54;75.61;99561.23;1763971;80;21196;-62
2021/01/01 08:05:44;;;;;;;14.28;7.60;;;;;;;8.52;75.76;99564.44;1759204;80;21248;-62
2021/01/01 08:08:22;;;;;;;16.40;8.18;;;;;;;8.52;75.83;99562.67;1768404;79;21214;-65
2021/01/01 08:10:54;;;;;;;16.05;7.72;;;;;;;8.57;75.81;99570.12;1768558;79;21204;-64
2021/01/01 08:13:27;;;;;;;13.25;7.40;;;;;;;8.68;75.74;99563.49;1765367;79;21227;-63
2021/01/01 08:15:57;;;;;;;16.30;7.83;;;;;;;8.79;75.90;99563.05;1758537;80;21668;-65
2021/01/01 08:18:27;;;;;;;14.70;7.37;;;;;;;8.89;76.03;99564.77;1765639;80;21176;-62
2021/01/01 08:21:00;;;;;;;10.80;6.35;;;;;;;8.95;76.02;99573.08;1759761;79;21746;-63
2021/01/01 08:23:48;;;;;;;15.63;6.75;;;;;;;8.96;75.96;99572.09;1750500;79;21168;-68
2021/01/01 08:26:15;;;;;;;16.15;8.38;;;;;;;8.94;75.92;99573.53;1754123;79;21330;-64
2021/01/01 08:28:43;;;;;;;16.82;7.53;;;;;;;9.01;75.93;99582.56;1765562;79;21243;-64
2021/01/01 08:31:11;;;;;;;10.32;5.87;;;;;;;9.10;75.93;99581.75;1747271;80;21231;-64
2021/01/01 08:33:40;;;;;;;11.85;6.65;;;;;;;9.19;75.87;99588.48;1753612;79;21227;-63
2021/01/01 08:36:10;;;;;;;11.12;6.75;;;;;;;9.26;75.82;99588.29;1760110;79;21555;-61
2021/01/01 08:38:42;;;;;;;15.43;6.90;;;;;;;9.28;75.80;99588.52;1766715;79;21334;-62
2021/01/01 08:41:19;;;;;;;11.08;5.00;;;;;;;9.29;75.85;99582.77;1766412;80;21685;-62
2021/01/01 08:43:46;;;;;;;11.50;5.78;;;;;;;9.35;75.83;99584.05;1697476;82;21182;-64
2021/01/01 08:46:17;;;;;;;11.78;6.30;;;;;;;9.44;75.63;99585.36;1699277;84;21203;-62
2021/01/01 08:48:45;;;;;;;11.18;6.37;;;;;;;9.51;75.54;99597.96;1750710;80;21196;-65
2021/01/01 08:51:13;;;;;;;20.52;11.93;;;;;;;9.58;75.52;99597.76;1768499;79;21195;-64
2021/01/01 08:53:41;;;;;;;14.58;8.83;;;;;;;9.60;75.58;99599.30;1734539;80;21243;-63
2021/01/01 08:56:09;;;;;;;10.98;6.62;;;;;;;9.60;75.54;99605.02;1761384;80;21200;-64
2021/01/01 08:58:37;;;;;;;9.35;5.85;;;;;;;9.60;75.48;99611.12;1760701;79;21188;-63
2021/01/01 09:01:16;;;;;;;32.78;17.75;;;;;;;9.63;75.46;99611.31;1701115;82;21219;-67
2021/01/01 09:03:44;;;;;;;46.98;17.77;;;;;;;9.73;75.63;99606.91;1751554;80;21432;-67
2021/01/01 09:06:18;;;;;;;21.85;11.15;;;;;;;9.80;75.54;99611.98;1756313;79;21211;-63
2021/01/01 09:08:45;;;;;;;10.80;6.55;;;;;;;9.89;75.51;99611.64;1758187;79;21192;-67
2021/01/01 09:11:22;;;;;;;11.43;6.70;;;;;;;9.90;75.43;99618.56;1757598;80;21215;-65
2021/01/01 09:14:04;;;;;;;13.75;6.05;;;;;;;9.90;75.45;99621.66;1697260;82;21192;-64
2021/01/01 09:16:33;;;;;;;11.80;6.53;;;;;;;9.92;75.35;99629.77;1748516;80;21204;-63
2021/01/01 09:19:11;;;;;;;11.85;5.45;;;;;;;9.99;75.25;99625.61;1756925;81;21180;-63
2021/01/01 09:21:39;;;;;;;12.40;6.10;;;;;;;10.06;75.07;99626.38;1676440;83;20998;-68
2021/01/01 09:24:07;;;;;;;11.90;6.28;;;;;;;10.08;75.04;99635.77;1756065;81;21196;-67
2021/01/01 09:26:35;;;;;;;10.32;5.60;;;;;;;10.06;75.07;99632.45;1755735;80;21791;-66
2021/01/01 09:29:08;;;;;;;12.13;6.05;;;;;;;10.03;75.09;99632.23;1753124;81;22568;-65
2021/01/01 09:31:37;;;;;;;9.85;5.25;;;;;;;10.05;75.07;99632.09;1680508;83;21474;-72
2021/01/01 09:34:06;;;;;;;12.73;6.53;;;;;;;10.12;74.98;99631.06;1754194;80;21255;-78
2021/01/01 09:36:40;;;;;;;9.75;6.03;;;;;;;10.15;75.06;99628.98;1749758;80;21204;-65
2021/01/01 09:39:08;;;;;;;11.73;5.67;;;;;;;10.21;75.09;99628.94;1750030;80;21513;-66
2021/01/01 09:41:37;;;;;;;11.73;5.47;;;;;;;10.20;75.11;99628.11;1754637;80;23119;-74
2021/01/01 09:44:05;;;;;;;10.15;5.15;;;;;;;10.20;75.13;99624.63;1675973;83;21153;-64
2021/01/01 09:46:33;;;;;;;9.18;4.53;;;;;;;10.18;75.20;99627.40;1754459;80;21184;-61
2021/01/01 09:49:01;;;;;;;12.03;5.25;;;;;;;10.18;75.22;99630.03;1755840;81;21149;-60
2021/01/01 09:51:28;;;;;;;9.45;4.92;;;;;;;10.23;75.01;99626.98;1753659;80;21592;-59
2021/01/01 09:53:56;;;;;;;11.55;5.08;;;;;;;10.26;75.03;99624.09;1747662;81;22821;-73
2021/01/01 09:56:35;;;;;;;11.05;6.17;;;;;;;10.29;74.86;99632.16;1752481;80;21136;-72
2021/01/01 09:59:04;;;;;;;11.53;6.28;;;;;;;10.27;75.03;99628.85;1753908;80;22328;-67
2021/01/01 10:01:31;;;;;;;9.25;5.62;;;;;;;10.28;75.16;99633.16;1751758;80;21124;-69
2021/01/01 10:03:59;;;;;;;9.55;5.55;;;;;;;10.30;75.12;99637.78;1756269;81;21627;-68
2021/01/01 10:06:27;;;;;;;11.15;5.65;;;;;;;10.33;74.81;99634.91;1754426;81;21261;-72
2021/01/01 10:08:55;;;;;;;8.60;4.90;;;;;;;10.40;74.60;99635.51;1749883;80;21617;-70
2021/01/01 10:11:22;;;;;;;9.28;5.83;;;;;;;10.45;74.37;99636.91;1748207;80;21172;-72
2021/01/01 10:13:49;;;;;;;10.18;4.75;;;;;;;10.44;74.30;99640.03;1677322;83;21799;-68
2021/01/01 10:16:17;;;;;;;9.88;5.17;;;;;;;10.39;74.41;99642.25;1750939;80;21124;-68
2021/01/01 10:18:45;;;;;;;8.65;4.92;;;;;;;10.34;74.39;99643.98;1747076;80;21255;-68
2021/01/01 10:21:13;;;;;;;9.63;4.58;;;;;;;10.34;74.39;99641.81;1757530;81;21624;-71
2021/01/01 10:23:41;;;;;;;9.55;5.00;;;;;;;10.39;74.26;99646.20;1720517;80;21745;-71
2021/01/01 10:26:09;;;;;;;9.88;4.78;;;;;;;10.39;74.17;99643.07;1752827;81;21642;-69
2021/01/01 10:28:36;;;;;;;9.45;4.60;;;;;;;10.40;74.22;99651.78;1693822;83;21697;-67
2021/01/01 10:31:04;;;;;;;9.10;4.60;;;;;;;10.37;74.21;99650.74;1701776;83;22210;-70
2021/01/01 10:33:32;;;;;;;8.68;4.47;;;;;;;10.34;74.31;99653.18;1700475;84;21150;-70
2021/01/01 10:35:59;;;;;;;6.33;4.08;;;;;;;10.34;74.31;99662.38;1756695;79;21228;-67
2021/01/01 10:38:27;;;;;;;10.05;3.92;;;;;;;10.40;74.20;99655.23;1740660;81;21475;-66
2021/01/01 10:40:55;;;;;;;7.67;3.52;;;;;;;10.41;73.95;99651.64;1750995;81;21136;-67
2021/01/01 10:43:23;;;;;;;10.45;3.67;;;;;;;10.36;73.97;99653.87;1755491;81;23516;-66
2021/01/01 10:45:50;;;;;;;9.28;3.65;;;;;;;10.29;74.14;99654.05;1757918;80;21212;-69
2021/01/01 10:48:17;;;;;;;6.10;2.95;;;;;;;10.29;74.20;99657.14;1748524;79;21164;-68
2021/01/01 10:50:45;;;;;;;6.97;3.65;;;;;;;10.35;74.19;99657.95;1750137;81;21113;-72
2021/01/01 10:53:13;;;;;;;8.35;3.77;;;;;;;10.43;74.08;99658.08;1684198;84;21600;-69
2021/01/01 10:55:45;;;;;;;9.15;4.17;;;;;;;10.46;74.01;99657.81;1680478;84;22732;-70
2021/01/01 10:58:15;;;;;;;9.98;4.45;;;;;;;10.46;74.08;99663.56;1757319;79;21997;-69
2021/01/01 11:00:44;;;;;;;8.90;4.72;;;;;;;10.46;74.08;99664.88;1751265;81;21421;-69
2021/01/01 11:03:11;;;;;;;8.08;4.33;;;;;;;10.43;74.08;99664.66;1750678;80;21598;-69
2021/01/01 11:05:38;;;;;;;9.35;4.50;;;;;;;10.46;74.05;99670.96;1750974;80;21722;-66
2021/01/01 11:08:08;;;;;;;9.35;4.85;;;;;;;10.53;73.74;99672.05;1757793;81;21206;-65
2021/01/01 11:10:35;;;;;;;10.68;5.10;;;;;;;10.57;73.60;99678.71;1751020;81;21995;-65
2021/01/01 11:13:04;;;;;;;8.65;4.78;;;;;;;10.53;73.48;99670.73;1680428;84;21164;-67
2021/01/01 12:23:16;;;;;;;7.25;3.77;;;;;;;10.54;72.76;99714.96;1832662;77;21192;-69
2021/01/01 12:24:56;;;;;;;6.50;3.37;;;;;;;10.52;72.79;99714.28;1808119;77;21528;-66
2021/01/01 12:27:28;;;;;;;5.80;2.65;;;;;;;10.50;72.75;99713.09;1838354;77;21487;-68
2021/01/01 12:29:56;;;;;;;5.97;3.02;;;;;;;10.49;72.62;99721.13;1836295;77;21115;-65
2021/01/01 12:32:25;;;;;;;5.83;3.02;;;;;;;10.51;72.31;99723.16;1823395;77;21339;-67
2021/01/01 12:34:53;;;;;;;6.25;2.52;;;;;;;10.57;72.15;99731.33;1770590;80;21378;-65
2021/01/01 12:37:21;;;;;;;6.20;2.58;;;;;;;10.60;71.94;99731.02;1791230;79;21131;-67
2021/01/01 12:39:48;;;;;;;6.87;3.30;;;;;;;10.58;72.03;99733.46;1770870;80;21615;-67
2021/01/01 12:42:16;;;;;;;5.83;2.67;;;;;;;10.54;72.27;99736.86;1839320;77;21179;-66
2021/01/01 12:44:44;;;;;;;5.87;2.77;;;;;;;10.49;72.38;99739.08;1816958;77;21100;-67
2021/01/01 12:47:12;;;;;;;6.50;3.12;;;;;;;10.42;72.53;99739.26;1838785;77;21184;-64
2021/01/01 12:49:39;;;;;;;5.65;2.70;;;;;;;10.44;72.58;99733.40;1831853;77;21191;-66